Aérodrome :
LOGIN :

S'inscrire | Disclaimer

   EN    FR    IT 

 










Légende :    VFR   VFR Marginal   IFR   IFR Intensif   IFR Très Intensif
Visi : 
Plafond : 
>= 8 km
>= 3000ft
5 à 8 km
1000 à 3000 ft
1500m à 5 km
500 à 1000 ft
800 à 1500m
200 à 500 ft
< 800m
< 200 ft
Symboles :   Orages  Brouillard  Fortes neiges  Fortes précipitations  Vent > 20 kt
SIGMETs :   Divers  Orages  Givrage  Turbulence  Onde Orograph.  Cendres Volcan.







- Altitude de l'aérodrome : 1906 ft
- Code IATA : INN


LOWI - Innsbruck

DERNIER METAR :
  • 141250Z 25003KT 2000 SHSN VV006 01/00 Q1005 R08/19//95 TEMPO 6000 -SHSN SCT006 BKN020

METARs EXPIRÉS :
  • 141220Z VRB02KT 7000 -SNRA FEW004 SCT010 BKN020 01/00 Q1005 R08/19//95 TEMPO 2000 SHSN VV005
  • 141150Z 10003KT 040V170 9000 -SNRA FEW004 SCT006 BKN020 01/00 Q1005 R08/19//95 TEMPO 2000 SHSN VV005
  • 141120Z 11005KT 060V130 3000 SN VV009 01/00 Q1005 R08/19//95 TEMPO 2000 SHSN VV005
  • 141050Z 05003KT 340V080 6000 -SN FEW008 SCT013 OVC025 00/00 Q1006 RESN R08/19//95 TEMPO 2000 SHSN VV005
  • 141020Z 11005KT 2000 SHSN VV004 00/M00 Q1005 R08/19//95 TEMPO 5000 -SHSN BKN015

TAF TAF LOWI
Valide du 14 à 12h jusqu'au 15 à 12h UTC


141115Z 1412/1512 08005KT 7000 -SN SCT004 BKN050 TX04/1512Z TNM00/1423Z
TEMPO 1412/1505 27012G25KT 1200 SHSN VV004
BECMG 1506/1508 9999 NSW FEW020
Pas de NOTAMs connus pour ce terrain.



MET'MAP, la Météo Aéronautique d'un coup d'oeil ! - Copyright ORBIFLY Décembre 2007 - Disclaimer

ORBIFLY MET'MAP TEAM :

Programmation & Développement : Alexandra Zaïnal
Conception & Développement : Baudouin d'Aumeries
Co-Programmation & Développement : Marc-Olivier Méhu
Soutien technique & logistique : Manuel Goepfert

Contact : metmap@orbifly.com




SOURCES & CREDITS :

   NOAA